Time;durP1;ratioP1;P1;durP2;ratioP2;P2;SDS_P1;SDS_P2;PMS_P1;PMS_P2;Temp;Humidity;BMP_temperature;BMP_pressure;BME280_temperature;BME280_humidity;BME280_pressure;Samples;Min_cycle;Max_cycle;Signal;HPM_P1;HPM_P2
2022/04/11 00:00:00;;;;;;;5.87;2.10;;;2.10;99.90;;;;;;4998625;28;20291;-79
2022/04/11 00:02:27;;;;;;;8.43;2.33;;;2.10;99.90;;;;;;4986430;28;20231;-78
2022/04/11 00:04:55;;;;;;;5.90;2.13;;;2.00;99.90;;;;;;4979716;28;20230;-79
2022/04/11 00:07:22;;;;;;;5.80;2.07;;;2.00;99.90;;;;;;4988424;28;20869;-80
2022/04/11 00:09:49;;;;;;;5.93;2.60;;;2.00;99.90;;;;;;4987520;28;20233;-80
2022/04/11 00:12:15;;;;;;;4.57;1.97;;;2.00;99.90;;;;;;4999668;28;20254;-80
2022/04/11 00:14:42;;;;;;;5.17;2.13;;;2.00;99.90;;;;;;5003474;28;20309;-80
2022/04/11 00:17:09;;;;;;;11.77;2.10;;;1.90;99.90;;;;;;4997638;28;20305;-80
2022/04/11 00:19:36;;;;;;;7.70;2.27;;;1.90;99.90;;;;;;5006212;28;20234;-79
2022/04/11 00:22:04;;;;;;;8.07;2.33;;;1.90;99.90;;;;;;4985284;28;20713;-79
2022/04/11 00:24:31;;;;;;;6.43;2.33;;;1.90;99.90;;;;;;4984907;28;20942;-79
2022/04/11 00:26:58;;;;;;;5.17;1.80;;;1.80;99.90;;;;;;5002962;28;20227;-80
2022/04/11 00:29:24;;;;;;;6.17;2.10;;;1.80;99.90;;;;;;4986234;28;20274;-79
2022/04/11 00:31:51;;;;;;;8.10;2.40;;;1.80;99.90;;;;;;4996312;28;20260;-79
2022/04/11 00:34:18;;;;;;;8.73;2.47;;;1.70;99.90;;;;;;4999785;28;21800;-80
2022/04/11 00:36:45;;;;;;;9.63;2.20;;;1.70;99.90;;;;;;4985194;28;20233;-80
2022/04/11 00:39:13;;;;;;;9.73;2.23;;;1.70;99.90;;;;;;4985770;28;20237;-79
2022/04/11 00:41:40;;;;;;;7.27;2.70;;;1.60;99.90;;;;;;4980396;28;20304;-79
2022/04/11 00:44:07;;;;;;;7.17;2.37;;;1.60;99.90;;;;;;5001544;28;20946;-79
2022/04/11 00:46:34;;;;;;;7.53;2.60;;;1.60;99.90;;;;;;5004924;28;20228;-79
2022/04/11 00:49:01;;;;;;;7.70;2.40;;;1.50;99.90;;;;;;5002654;28;20229;-79
2022/04/11 00:51:29;;;;;;;6.10;2.40;;;1.50;99.90;;;;;;4983139;28;20248;-79
2022/04/11 00:53:59;;;;;;;8.57;2.40;;;1.50;99.90;;;;;;4999681;28;20233;-79
2022/04/11 00:56:29;;;;;;;9.10;2.60;;;1.40;99.90;;;;;;5004442;28;20250;-79
2022/04/11 00:58:58;;;;;;;7.40;2.70;;;1.40;99.90;;;;;;5003514;28;20229;-79
2022/04/11 01:01:25;;;;;;;6.03;2.40;;;1.40;99.90;;;;;;5003303;28;20268;-79
2022/04/11 01:03:52;;;;;;;6.40;2.77;;;1.40;99.90;;;;;;4988433;28;20267;-79
2022/04/11 01:06:19;;;;;;;8.17;2.77;;;1.30;99.90;;;;;;4986702;28;20522;-78
2022/04/11 01:08:45;;;;;;;8.07;2.63;;;1.30;99.90;;;;;;5005610;28;20322;-78
2022/04/11 01:11:12;;;;;;;12.13;2.80;;;1.30;99.90;;;;;;4985229;28;20600;-80
2022/04/11 01:13:42;;;;;;;7.60;2.33;;;1.20;99.90;;;;;;4986818;28;20232;-79
2022/04/11 01:16:09;;;;;;;6.13;3.07;;;1.20;99.90;;;;;;4985386;28;20250;-80
2022/04/11 01:18:38;;;;;;;7.40;2.73;;;1.20;99.90;;;;;;4986615;28;20227;-79
2022/04/11 01:21:08;;;;;;;7.93;2.80;;;1.20;99.90;;;;;;4990962;28;20222;-80
2022/04/11 01:23:37;;;;;;;8.10;2.50;;;1.10;99.90;;;;;;4985661;28;20301;-80
2022/04/11 01:26:07;;;;;;;8.43;2.50;;;1.10;99.90;;;;;;4991791;28;20250;-79
2022/04/11 01:28:38;;;;;;;8.33;2.87;;;1.10;99.90;;;;;;4990632;28;20254;-79
2022/04/11 01:31:06;;;;;;;7.53;3.13;;;1.10;99.90;;;;;;4991403;28;20274;-79
2022/04/11 01:33:34;;;;;;;10.47;2.70;;;1.10;99.90;;;;;;4990581;28;20231;-78
2022/04/11 01:36:04;;;;;;;5.60;2.60;;;1.10;99.90;;;;;;4989981;28;20368;-79
2022/04/11 01:38:30;;;;;;;13.03;3.40;;;1.10;99.90;;;;;;5008464;28;20232;-79
2022/04/11 01:40:59;;;;;;;6.27;3.27;;;1.00;99.90;;;;;;4984942;28;20232;-79
2022/04/11 01:43:26;;;;;;;11.13;3.00;;;1.00;99.90;;;;;;4982112;28;20222;-79
2022/04/11 01:45:54;;;;;;;7.63;2.53;;;1.00;99.90;;;;;;4990501;28;20247;-80
2022/04/11 01:48:40;;;;;;;11.13;3.37;;;0.90;99.90;;;;;;4990298;28;20251;-80
2022/04/11 01:51:07;;;;;;;8.03;2.80;;;0.90;99.90;;;;;;5006186;28;20215;-80
2022/04/11 01:53:34;;;;;;;8.27;3.10;;;0.90;99.90;;;;;;4996872;28;20388;-79
2022/04/11 01:56:02;;;;;;;11.90;3.43;;;0.80;99.90;;;;;;4983564;28;20226;-80
2022/04/11 01:58:31;;;;;;;5.53;2.83;;;0.80;99.90;;;;;;4989707;28;20263;-80
2022/04/11 02:00:58;;;;;;;8.33;2.93;;;0.80;99.90;;;;;;4989531;28;20312;-80
2022/04/11 02:03:26;;;;;;;7.77;3.20;;;0.70;99.90;;;;;;4990267;28;20294;-79
2022/04/11 02:05:53;;;;;;;4.53;2.60;;;0.70;99.90;;;;;;5007120;28;20277;-80
2022/04/11 02:08:19;;;;;;;5.47;2.73;;;0.70;99.90;;;;;;4992277;28;20220;-80
2022/04/11 02:10:47;;;;;;;11.63;3.23;;;0.70;99.90;;;;;;4986062;28;20229;-78
2022/04/11 02:13:15;;;;;;;6.17;2.70;;;0.70;99.90;;;;;;4988206;28;20726;-79
2022/04/11 02:15:42;;;;;;;8.03;3.10;;;0.70;99.90;;;;;;4990263;28;20911;-79
2022/04/11 02:18:09;;;;;;;7.03;2.67;;;0.60;99.90;;;;;;5001825;28;20226;-79
2022/04/11 02:20:36;;;;;;;7.23;2.90;;;0.60;99.90;;;;;;5004048;28;20322;-79
2022/04/11 02:23:03;;;;;;;5.23;2.90;;;0.60;99.90;;;;;;4987460;28;20227;-79
2022/04/11 02:25:32;;;;;;;6.53;2.63;;;0.60;99.90;;;;;;4990189;28;20318;-79
2022/04/11 02:28:01;;;;;;;6.40;2.50;;;0.60;99.90;;;;;;4983107;28;20239;-79
2022/04/11 02:30:30;;;;;;;8.17;2.77;;;0.60;99.90;;;;;;4983020;28;20229;-79
2022/04/11 02:32:58;;;;;;;6.63;2.77;;;0.60;99.90;;;;;;4985353;28;20878;-80
2022/04/11 02:35:25;;;;;;;5.13;2.67;;;0.70;99.90;;;;;;4990128;28;20253;-79
2022/04/11 02:37:52;;;;;;;10.00;3.07;;;0.70;99.90;;;;;;5008589;28;20321;-79
2022/04/11 02:40:19;;;;;;;7.30;3.00;;;0.70;99.90;;;;;;4990741;28;20226;-79
2022/04/11 02:43:05;;;;;;;5.47;2.50;;;0.70;99.90;;;;;;4980544;28;20232;-79
2022/04/11 02:45:35;;;;;;;10.13;2.53;;;0.80;99.90;;;;;;4981849;28;20242;-79
2022/04/11 02:48:02;;;;;;;6.97;2.70;;;0.80;99.90;;;;;;5002856;28;20231;-79
2022/04/11 02:50:32;;;;;;;6.13;2.30;;;0.80;99.90;;;;;;4989667;28;20234;-79
2022/04/11 02:53:08;;;;;;;6.63;2.83;;;0.80;99.90;;;;;;4989898;28;20225;-80
2022/04/11 02:55:35;;;;;;;5.60;2.47;;;0.80;99.90;;;;;;4995975;28;20234;-80
2022/04/11 02:58:02;;;;;;;5.63;2.60;;;0.70;99.90;;;;;;4991600;28;20248;-79
2022/04/11 03:00:29;;;;;;;5.73;2.70;;;0.70;99.90;;;;;;4985447;28;20335;-79
2022/04/11 03:02:59;;;;;;;6.13;2.50;;;0.60;99.90;;;;;;4986913;28;20233;-79
2022/04/11 03:05:30;;;;;;;6.47;2.93;;;0.60;99.90;;;;;;4992950;28;20290;-79
2022/04/11 03:07:58;;;;;;;6.73;2.27;;;0.50;99.90;;;;;;4987150;28;20232;-78
2022/04/11 03:10:25;;;;;;;8.83;2.80;;;0.50;99.90;;;;;;4989529;28;20316;-79
2022/04/11 03:12:56;;;;;;;6.90;2.90;;;0.50;99.90;;;;;;4987700;28;20246;-78
2022/04/11 03:15:23;;;;;;;7.97;2.90;;;0.40;99.90;;;;;;4986444;28;20219;-79
2022/04/11 03:17:51;;;;;;;6.30;2.53;;;0.40;99.90;;;;;;4988231;28;20916;-79
2022/04/11 03:20:20;;;;;;;6.53;3.20;;;0.30;99.90;;;;;;4986316;28;20239;-79
2022/04/11 03:22:47;;;;;;;4.27;2.53;;;0.30;99.90;;;;;;4986649;28;20286;-78
2022/04/11 03:25:14;;;;;;;7.93;3.40;;;0.30;99.90;;;;;;5000045;28;20878;-79
2022/04/11 03:27:43;;;;;;;5.87;2.50;;;0.20;99.90;;;;;;4986816;28;20232;-79
2022/04/11 03:30:11;;;;;;;8.40;3.73;;;0.20;99.90;;;;;;4986617;28;20233;-78
2022/04/11 03:32:40;;;;;;;5.80;3.20;;;0.20;99.90;;;;;;4988760;28;20237;-79
2022/04/11 03:35:10;;;;;;;7.93;3.20;;;0.20;99.90;;;;;;4983456;28;20268;-79
2022/04/11 03:37:40;;;;;;;7.83;2.90;;;0.10;99.90;;;;;;4982353;28;20364;-79
2022/04/11 03:40:17;;;;;;;9.17;2.97;;;0.10;99.90;;;;;;4987456;28;20256;-79
2022/04/11 03:42:45;;;;;;;5.43;2.70;;;0.00;99.90;;;;;;4988447;28;20235;-79
2022/04/11 03:45:12;;;;;;;8.20;2.90;;;0.10;99.90;;;;;;4988176;28;20218;-79
2022/04/11 03:47:40;;;;;;;7.87;2.80;;;0.00;99.90;;;;;;4985433;28;20249;-80
2022/04/11 03:50:09;;;;;;;6.80;2.93;;;-0.10;99.90;;;;;;4985501;28;20265;-80
2022/04/11 03:52:40;;;;;;;4.00;2.40;;;-0.10;99.90;;;;;;4987493;28;20241;-80
2022/04/11 03:55:10;;;;;;;5.40;3.07;;;-0.10;99.90;;;;;;4998603;28;20261;-81
2022/04/11 03:57:42;;;;;;;7.37;2.80;;;-0.20;99.90;;;;;;4981768;28;20309;-80
2022/04/11 04:00:10;;;;;;;7.40;2.67;;;-0.20;99.90;;;;;;4985567;28;20227;-80
2022/04/11 04:03:10;;;;;;;7.03;2.77;;;-0.20;99.90;;;;;;4980301;28;20225;-79
2022/04/11 04:05:40;;;;;;;7.87;2.50;;;-0.20;99.90;;;;;;4987099;28;20233;-79
2022/04/11 04:08:10;;;;;;;4.67;2.37;;;-0.20;99.90;;;;;;4990773;28;20284;-79
2022/04/11 04:10:40;;;;;;;7.13;2.70;;;-0.30;99.90;;;;;;4984543;28;20254;-79
2022/04/11 04:13:07;;;;;;;6.47;3.00;;;-0.30;99.90;;;;;;4983522;28;20242;-79
2022/04/11 04:15:36;;;;;;;5.40;2.50;;;-0.30;99.90;;;;;;4983501;28;20286;-79
2022/04/11 04:18:03;;;;;;;7.87;3.23;;;-0.40;99.90;;;;;;4989065;28;20221;-79
2022/04/11 04:20:30;;;;;;;4.97;2.80;;;-0.40;99.90;;;;;;4988836;28;20230;-79
2022/04/11 04:23:00;;;;;;;5.87;3.03;;;-0.40;99.90;;;;;;4990158;28;20237;-81
2022/04/11 04:25:28;;;;;;;6.50;2.90;;;-0.40;99.90;;;;;;4999844;28;20236;-82
2022/04/11 04:27:55;;;;;;;9.83;3.30;;;-0.50;99.90;;;;;;4989531;28;20248;-82
2022/04/11 04:30:23;;;;;;;5.97;3.00;;;-0.50;99.90;;;;;;4988261;28;20710;-82
2022/04/11 04:32:50;;;;;;;5.40;2.80;;;-0.50;99.90;;;;;;4986064;28;20725;-80
2022/04/11 04:35:17;;;;;;;5.43;2.90;;;-0.50;99.90;;;;;;4986632;28;20224;-79
2022/04/11 04:37:47;;;;;;;5.17;2.87;;;-0.60;99.90;;;;;;4988457;28;20816;-81
2022/04/11 04:40:14;;;;;;;8.10;3.17;;;-0.60;99.90;;;;;;4983360;28;20931;-82
2022/04/11 04:42:46;;;;;;;5.83;3.07;;;-0.60;99.90;;;;;;4992597;28;20270;-82
2022/04/11 04:45:18;;;;;;;7.03;3.33;;;-0.60;99.90;;;;;;4993562;28;20224;-80
2022/04/11 04:48:09;;;;;;;10.60;3.03;;;-0.70;99.90;;;;;;4986318;28;20226;-79
2022/04/11 04:50:38;;;;;;;11.63;3.60;;;-0.60;99.90;;;;;;4981488;28;20230;-79
2022/04/11 04:53:08;;;;;;;9.87;3.47;;;-0.70;99.90;;;;;;4993520;28;20426;-79
2022/04/11 04:55:34;;;;;;;8.57;3.63;;;-0.60;99.90;;;;;;4994471;28;20232;-79
2022/04/11 04:58:04;;;;;;;7.73;3.57;;;-0.60;99.90;;;;;;4994761;28;20300;-79
2022/04/11 05:00:32;;;;;;;9.63;3.57;;;-0.60;99.90;;;;;;4991223;28;20261;-79
2022/04/11 05:02:59;;;;;;;10.33;3.80;;;-0.60;99.90;;;;;;4990833;28;20292;-79
2022/04/11 05:05:27;;;;;;;8.23;3.70;;;-0.60;99.90;;;;;;4991152;28;20223;-79
2022/04/11 05:07:57;;;;;;;7.60;3.50;;;-0.50;99.90;;;;;;4974771;28;20309;-80
2022/04/11 05:10:28;;;;;;;10.10;4.80;;;-0.50;99.90;;;;;;4987007;28;20722;-79
2022/04/11 05:12:55;;;;;;;8.07;3.83;;;-0.40;99.90;;;;;;4996098;28;20221;-79
2022/04/11 05:15:24;;;;;;;5.60;3.97;;;-0.30;99.90;;;;;;5002721;28;20232;-79
2022/04/11 05:17:56;;;;;;;6.87;3.73;;;-0.30;99.90;;;;;;4994341;28;20256;-80
2022/04/11 05:20:26;;;;;;;11.73;3.70;;;-0.10;99.90;;;;;;4985658;28;20239;-78
2022/04/11 05:22:53;;;;;;;6.40;4.07;;;0.00;99.90;;;;;;4991307;28;20344;-78
2022/04/11 05:25:23;;;;;;;7.33;3.83;;;0.10;99.90;;;;;;4990347;28;20221;-81
2022/04/11 05:27:51;;;;;;;7.53;3.83;;;0.10;99.90;;;;;;4991528;28;20248;-78
2022/04/11 05:30:19;;;;;;;7.70;3.83;;;0.20;99.90;;;;;;4989706;28;20220;-80
2022/04/11 05:32:48;;;;;;;8.87;4.47;;;0.40;99.90;;;;;;4991308;28;20237;-80
2022/04/11 05:35:15;;;;;;;9.97;3.93;;;0.50;99.90;;;;;;4988188;28;20230;-81
2022/04/11 05:37:42;;;;;;;7.50;3.60;;;0.70;99.90;;;;;;4989781;28;20317;-82
2022/04/11 05:40:12;;;;;;;8.57;3.80;;;0.90;99.90;;;;;;4990087;28;20231;-80
2022/04/11 05:42:39;;;;;;;7.07;3.70;;;1.20;99.90;;;;;;4993019;28;21779;-78
2022/04/11 05:45:07;;;;;;;7.20;3.67;;;1.40;99.90;;;;;;4988213;28;20235;-79
2022/04/11 05:47:34;;;;;;;8.57;3.83;;;1.50;99.90;;;;;;4990010;28;20236;-79
2022/04/11 05:50:02;;;;;;;6.43;3.57;;;1.60;99.90;;;;;;4991773;28;20309;-78
2022/04/11 05:52:29;;;;;;;11.13;3.93;;;1.70;99.90;;;;;;4988488;28;20232;-78
2022/04/11 05:54:56;;;;;;;10.37;3.90;;;1.90;99.90;;;;;;4991315;28;20232;-79
2022/04/11 05:57:23;;;;;;;6.90;4.10;;;2.00;99.90;;;;;;4982134;28;20345;-79
2022/04/11 05:59:51;;;;;;;10.57;3.93;;;2.20;99.90;;;;;;4992034;28;20232;-79
2022/04/11 06:02:19;;;;;;;8.13;3.80;;;2.30;99.90;;;;;;4990788;28;20234;-78
2022/04/11 06:04:46;;;;;;;8.37;3.83;;;2.50;99.90;;;;;;5009469;28;20236;-79
2022/04/11 06:07:16;;;;;;;9.87;3.60;;;2.60;99.90;;;;;;4989637;28;20213;-79
2022/04/11 06:09:43;;;;;;;7.93;3.83;;;2.80;99.90;;;;;;4991077;28;20232;-78
2022/04/11 06:12:11;;;;;;;5.77;3.27;;;3.00;99.90;;;;;;4995611;28;20244;-79
2022/04/11 06:14:40;;;;;;;7.33;4.13;;;3.20;99.90;;;;;;4984708;28;20320;-78
2022/04/11 06:17:07;;;;;;;10.40;4.00;;;3.40;99.90;;;;;;4989952;28;20223;-78
2022/04/11 06:19:34;;;;;;;7.67;3.70;;;3.70;99.90;;;;;;4991537;28;20231;-78
2022/04/11 06:22:01;;;;;;;9.90;4.03;;;4.00;99.90;;;;;;4985806;28;20217;-79
2022/04/11 06:24:29;;;;;;;7.53;3.13;;;4.20;99.90;;;;;;4988688;28;20319;-79
2022/04/11 06:26:57;;;;;;;7.50;3.27;;;4.60;99.90;;;;;;4982578;28;20712;-78
2022/04/11 06:29:25;;;;;;;6.53;3.20;;;4.90;99.90;;;;;;4983279;28;20232;-79
2022/04/11 06:31:52;;;;;;;6.00;2.70;;;5.20;99.90;;;;;;4990480;28;20861;-79
2022/04/11 06:34:25;;;;;;;7.93;3.20;;;5.50;99.90;;;;;;4990041;28;20228;-79
2022/04/11 06:36:53;;;;;;;5.70;2.87;;;5.70;99.90;;;;;;4991168;28;20240;-79
2022/04/11 06:39:20;;;;;;;8.70;3.00;;;5.90;99.90;;;;;;4987226;28;20229;-78
2022/04/11 06:41:53;;;;;;;7.20;3.03;;;6.10;99.90;;;;;;4991492;28;20236;-78
2022/04/11 06:44:21;;;;;;;7.17;3.20;;;6.20;99.70;;;;;;4989242;28;20229;-78
2022/04/11 06:46:56;;;;;;;9.60;3.53;;;6.40;99.60;;;;;;4979803;28;20279;-78
2022/04/11 06:49:25;;;;;;;6.67;2.80;;;6.50;99.50;;;;;;4986899;28;21074;-78
2022/04/11 06:51:52;;;;;;;9.40;3.10;;;6.60;99.50;;;;;;4987305;28;20245;-78
2022/04/11 06:54:19;;;;;;;7.07;2.63;;;6.70;99.40;;;;;;5007457;28;20311;-78
2022/04/11 06:56:45;;;;;;;7.63;2.70;;;6.90;99.40;;;;;;5008494;28;20237;-78
2022/04/11 06:59:15;;;;;;;7.17;2.33;;;7.00;99.10;;;;;;4985760;28;20231;-79
2022/04/11 07:01:41;;;;;;;6.40;3.00;;;7.10;98.70;;;;;;4993122;28;20259;-78
2022/04/11 07:04:08;;;;;;;7.77;2.80;;;7.20;98.50;;;;;;4989327;28;20226;-78
2022/04/11 07:06:35;;;;;;;8.00;2.73;;;7.20;98.30;;;;;;4999174;28;20233;-78
2022/04/11 07:09:02;;;;;;;4.77;2.60;;;7.30;98.30;;;;;;4990983;28;20239;-78
2022/04/11 07:11:30;;;;;;;6.20;2.83;;;7.30;98.20;;;;;;4991026;28;20238;-78
2022/04/11 07:13:57;;;;;;;7.57;3.10;;;7.30;98.30;;;;;;4986956;28;20257;-78
2022/04/11 07:16:25;;;;;;;11.13;3.80;;;7.40;98.30;;;;;;5007644;28;20228;-78
2022/04/11 07:18:52;;;;;;;8.83;3.50;;;7.50;98.40;;;;;;5009013;28;20312;-78
2022/04/11 07:21:19;;;;;;;7.10;2.97;;;7.60;98.40;;;;;;4989709;28;20253;-78
2022/04/11 07:23:46;;;;;;;7.10;2.37;;;7.70;98.40;;;;;;5007518;28;20243;-78
2022/04/11 07:26:13;;;;;;;8.17;2.43;;;7.90;98.60;;;;;;5006735;28;20231;-78
2022/04/11 07:28:40;;;;;;;6.83;2.80;;;8.00;98.20;;;;;;4991411;28;20232;-78
2022/04/11 07:31:07;;;;;;;4.87;3.10;;;8.20;98.10;;;;;;4989850;28;20218;-78
2022/04/11 07:33:36;;;;;;;10.43;3.20;;;8.40;98.00;;;;;;5006581;28;20231;-78
2022/04/11 07:36:02;;;;;;;5.87;2.73;;;8.60;97.80;;;;;;5008182;28;20254;-78
2022/04/11 07:38:30;;;;;;;8.57;3.23;;;8.80;98.00;;;;;;4990604;28;21016;-78
2022/04/11 07:40:57;;;;;;;8.83;3.10;;;8.90;97.40;;;;;;4997598;28;20228;-78
2022/04/11 07:43:24;;;;;;;8.00;2.60;;;9.00;97.30;;;;;;4982607;28;20255;-78
2022/04/11 07:45:50;;;;;;;8.13;2.50;;;9.20;97.10;;;;;;4987147;28;20223;-79
2022/04/11 07:48:17;;;;;;;6.83;2.43;;;9.40;96.80;;;;;;4986735;28;20220;-79
2022/04/11 07:50:45;;;;;;;6.33;2.80;;;9.50;96.90;;;;;;5006925;28;20244;-81
2022/04/11 07:53:12;;;;;;;5.93;2.70;;;9.80;97.10;;;;;;5005902;28;20226;-78
2022/04/11 07:55:38;;;;;;;6.07;2.13;;;10.10;97.80;;;;;;5007691;28;20244;-78
2022/04/11 07:58:05;;;;;;;8.47;2.43;;;10.40;97.60;;;;;;5007154;28;20232;-78
2022/04/11 08:00:32;;;;;;;7.67;2.70;;;10.80;97.00;;;;;;5006912;28;20264;-78
2022/04/11 08:03:00;;;;;;;9.00;2.73;;;11.10;96.80;;;;;;4979691;28;20260;-78
2022/04/11 08:05:26;;;;;;;6.10;2.57;;;11.50;96.80;;;;;;5003776;28;20307;-78
2022/04/11 08:07:54;;;;;;;5.63;2.03;;;11.90;96.90;;;;;;4987579;28;20236;-79
2022/04/11 08:10:22;;;;;;;6.03;2.30;;;12.40;96.30;;;;;;5007434;28;20235;-79
2022/04/11 08:12:53;;;;;;;6.47;2.30;;;12.70;95.50;;;;;;5006820;28;20232;-79
2022/04/11 08:15:20;;;;;;;5.57;2.10;;;13.00;94.10;;;;;;4981485;28;20222;-79
2022/04/11 08:17:47;;;;;;;9.00;2.47;;;13.20;93.40;;;;;;5001872;28;20243;-79
2022/04/11 08:20:14;;;;;;;9.60;2.60;;;13.30;93.50;;;;;;5006314;28;20219;-78
2022/04/11 08:22:41;;;;;;;6.97;2.47;;;13.40;93.70;;;;;;4983185;28;20230;-78
2022/04/11 08:25:10;;;;;;;6.83;1.87;;;13.60;94.10;;;;;;4999822;28;20623;-79
2022/04/11 08:27:37;;;;;;;7.57;2.23;;;13.80;93.00;;;;;;4991447;28;20228;-79
2022/04/11 08:30:05;;;;;;;5.97;2.13;;;14.00;92.60;;;;;;5007790;28;20222;-78
2022/04/11 08:32:37;;;;;;;6.70;2.60;;;14.20;92.30;;;;;;5010875;28;20251;-79
2022/04/11 08:35:05;;;;;;;4.37;1.87;;;14.40;92.00;;;;;;5006301;28;20270;-79
2022/04/11 08:37:32;;;;;;;4.77;1.77;;;14.60;91.80;;;;;;5010627;28;20238;-79
2022/04/11 08:39:59;;;;;;;5.00;2.00;;;14.70;91.10;;;;;;5008131;28;20275;-79
2022/04/11 08:42:27;;;;;;;5.33;2.10;;;14.80;90.60;;;;;;5006267;28;20243;-79
2022/04/11 08:44:56;;;;;;;7.07;2.07;;;14.90;91.00;;;;;;5005239;28;20231;-80
2022/04/11 08:47:23;;;;;;;6.27;2.00;;;15.00;91.00;;;;;;4989674;28;20278;-85
2022/04/11 08:49:52;;;;;;;4.53;1.90;;;15.20;90.80;;;;;;5005974;28;20229;-80
2022/04/11 08:52:20;;;;;;;7.93;2.10;;;15.50;90.20;;;;;;4992559;28;20277;-79
2022/04/11 08:54:47;;;;;;;5.07;1.93;;;15.80;89.40;;;;;;5002681;28;20708;-80
2022/04/11 08:57:16;;;;;;;3.47;1.50;;;16.00;87.40;;;;;;5002371;28;20313;-79
2022/04/11 08:59:44;;;;;;;2.50;1.43;;;16.10;84.50;;;;;;5005979;28;20254;-80
2022/04/11 09:02:11;;;;;;;3.30;1.50;;;16.00;82.30;;;;;;4997610;28;20237;-80
2022/04/11 09:04:49;;;;;;;4.93;1.73;;;15.70;82.50;;;;;;4998822;28;20230;-79
2022/04/11 09:07:16;;;;;;;3.70;1.60;;;15.60;80.80;;;;;;5003086;28;20224;-79
2022/04/11 09:09:43;;;;;;;2.00;1.00;;;15.40;81.20;;;;;;4985773;28;20907;-80
2022/04/11 09:12:11;;;;;;;2.83;1.33;;;15.20;78.60;;;;;;4985248;28;20743;-79
2022/04/11 09:14:38;;;;;;;6.17;1.80;;;15.00;77.90;;;;;;5003739;28;20235;-79
2022/04/11 09:17:09;;;;;;;3.07;1.20;;;14.80;78.90;;;;;;5003522;28;20280;-80
2022/04/11 09:19:38;;;;;;;3.37;1.37;;;14.60;78.20;;;;;;5007530;28;20231;-80
2022/04/11 09:22:05;;;;;;;3.37;1.10;;;14.60;80.60;;;;;;5009524;28;20232;-80
2022/04/11 09:24:32;;;;;;;3.83;1.40;;;14.80;80.60;;;;;;5009987;28;20224;-80
2022/04/11 09:26:59;;;;;;;3.67;1.13;;;15.10;79.60;;;;;;5004880;28;20819;-80
2022/04/11 09:29:28;;;;;;;4.10;1.20;;;15.40;77.60;;;;;;5000869;28;20233;-80
2022/04/11 09:32:02;;;;;;;3.47;1.40;;;15.80;77.80;;;;;;5000985;28;20232;-80
2022/04/11 09:34:30;;;;;;;3.93;1.20;;;16.20;74.30;;;;;;4985265;28;20321;-79
2022/04/11 09:36:58;;;;;;;2.97;1.20;;;16.60;72.80;;;;;;4989607;28;20223;-79
2022/04/11 09:39:27;;;;;;;3.93;1.20;;;16.90;72.60;;;;;;5004859;28;20257;-79
2022/04/11 09:41:54;;;;;;;4.73;1.33;;;17.20;70.90;;;;;;4989682;28;20317;-79
2022/04/11 09:44:25;;;;;;;2.70;1.23;;;17.50;71.70;;;;;;5004052;28;20863;-79
2022/04/11 09:46:54;;;;;;;2.17;1.50;;;17.90;68.90;;;;;;4991020;28;20813;-79
2022/04/11 09:49:21;;;;;;;5.60;1.50;;;18.20;70.80;;;;;;5009245;28;20698;-79
2022/04/11 09:52:08;;;;;;;3.13;1.97;;;18.50;69.60;;;;;;4990316;28;20338;-79
2022/04/11 09:54:36;;;;;;;3.87;1.53;;;18.70;68.10;;;;;;5002975;28;20741;-79
2022/04/11 09:57:04;;;;;;;2.57;1.10;;;18.80;65.50;;;;;;5007137;28;20225;-79
2022/04/11 09:59:31;;;;;;;4.80;1.23;;;18.60;64.80;;;;;;4992608;28;20581;-79
2022/04/11 10:01:58;;;;;;;4.33;1.33;;;18.50;64.10;;;;;;5000245;28;20245;-79
2022/04/11 10:04:26;;;;;;;2.87;1.30;;;18.30;61.60;;;;;;4988426;28;20367;-79
2022/04/11 10:06:53;;;;;;;2.33;1.20;;;18.10;60.50;;;;;;4988331;28;20227;-79
2022/04/11 10:09:23;;;;;;;3.23;1.20;;;17.90;61.30;;;;;;4989158;28;20705;-79
2022/04/11 10:11:52;;;;;;;1.60;1.13;;;17.70;61.20;;;;;;5009103;28;20855;-79
2022/04/11 10:14:23;;;;;;;4.20;1.30;;;17.50;61.90;;;;;;4990971;28;20240;-79
2022/04/11 10:16:52;;;;;;;4.27;1.20;;;17.30;61.30;;;;;;5006984;28;20242;-79
2022/04/11 10:19:24;;;;;;;2.73;1.27;;;17.00;60.30;;;;;;4984901;28;20294;-79
2022/04/11 10:21:53;;;;;;;3.17;1.70;;;16.70;61.40;;;;;;4985237;28;20223;-79
2022/04/11 10:24:32;;;;;;;2.73;1.30;;;16.50;61.80;;;;;;5003320;28;20292;-79
2022/04/11 10:27:15;;;;;;;3.93;1.57;;;16.30;62.00;;;;;;5008312;28;20259;-79
2022/04/11 10:29:43;;;;;;;2.93;1.10;;;16.20;60.40;;;;;;5007012;28;20308;-79
2022/04/11 10:32:11;;;;;;;3.70;1.00;;;16.10;63.40;;;;;;5008602;28;20240;-79
2022/04/11 10:34:52;;;;;;;2.40;1.20;;;16.20;62.90;;;;;;4990915;28;20239;-80
2022/04/11 10:37:21;;;;;;;2.43;1.27;;;16.40;61.40;;;;;;5007739;28;20809;-79
2022/04/11 10:39:49;;;;;;;3.60;1.40;;;16.70;61.70;;;;;;4987271;28;20227;-79
2022/04/11 10:42:22;;;;;;;3.17;1.40;;;17.10;63.30;;;;;;5007251;28;20225;-79
2022/04/11 10:44:50;;;;;;;2.10;1.40;;;17.50;62.90;;;;;;4989287;28;20309;-79
2022/04/11 10:47:32;;;;;;;4.13;1.80;;;17.80;61.20;;;;;;5007000;28;20886;-79
2022/04/11 10:50:24;;;;;;;1.63;1.00;;;17.80;60.50;;;;;;5004787;28;20291;-80
2022/04/11 10:53:08;;;;;;;2.70;1.40;;;17.70;58.80;;;;;;5005930;28;20237;-79
2022/04/11 10:55:37;;;;;;;3.37;1.23;;;17.50;58.00;;;;;;4984927;28;20216;-80
2022/04/11 10:58:04;;;;;;;3.23;1.07;;;17.40;59.50;;;;;;5008867;28;20581;-79
2022/04/11 11:00:32;;;;;;;2.20;1.03;;;17.20;59.00;;;;;;5008403;28;20326;-79
2022/04/11 11:03:13;;;;;;;4.87;1.50;;;17.10;57.60;;;;;;4988461;28;20309;-79
2022/04/11 11:05:42;;;;;;;2.97;1.23;;;16.90;57.50;;;;;;5006283;28;20259;-79
2022/04/11 11:08:32;;;;;;;2.57;1.40;;;16.80;58.40;;;;;;4992123;28;20570;-79
2022/04/11 11:11:02;;;;;;;2.07;0.90;;;16.70;58.00;;;;;;5007949;28;20904;-79
2022/04/11 11:13:40;;;;;;;3.33;1.50;;;16.70;58.80;;;;;;4991220;28;20304;-79
2022/04/11 11:16:58;;;;;;;3.77;1.40;;;16.70;59.80;;;;;;4986341;28;20238;-82
2022/04/11 11:19:25;;;;;;;2.73;1.23;;;16.70;60.00;;;;;;4987284;28;20266;-82
2022/04/11 11:22:08;;;;;;;3.90;1.50;;;16.50;59.50;;;;;;4988558;28;20313;-83
2022/04/11 11:24:35;;;;;;;4.43;1.80;;;16.30;59.70;;;;;;5004556;28;20225;-83
2022/04/11 11:27:05;;;;;;;3.23;1.40;;;16.10;59.30;;;;;;4990532;28;20291;-82
2022/04/11 11:29:34;;;;;;;3.87;1.67;;;15.90;59.40;;;;;;4989241;28;20303;-82
2022/04/11 11:32:03;;;;;;;6.97;1.60;;;15.60;59.40;;;;;;5006532;28;20222;-81
2022/04/11 11:34:32;;;;;;;4.57;2.00;;;15.40;59.50;;;;;;4981641;28;20266;-82
2022/04/11 11:37:00;;;;;;;3.57;1.63;;;15.10;60.00;;;;;;5006105;28;20289;-81
2022/04/11 11:39:27;;;;;;;3.70;1.60;;;14.80;60.00;;;;;;5005407;28;20687;-82
2022/04/11 11:41:57;;;;;;;4.60;1.80;;;14.50;60.50;;;;;;5003844;28;20237;-81
2022/04/11 11:44:26;;;;;;;4.67;1.70;;;14.30;60.70;;;;;;4996850;28;20337;-82
2022/04/11 11:46:56;;;;;;;3.37;1.37;;;14.10;62.20;;;;;;4984328;28;20241;-82
2022/04/11 11:49:24;;;;;;;3.83;1.80;;;14.10;62.30;;;;;;4984189;28;20233;-83
2022/04/11 11:51:52;;;;;;;3.53;1.67;;;14.20;62.70;;;;;;4991082;28;20236;-81
2022/04/11 11:54:33;;;;;;;4.87;1.70;;;14.30;62.70;;;;;;4984288;28;20224;-82
2022/04/11 11:56:59;;;;;;;6.27;1.77;;;14.40;62.30;;;;;;4981800;28;20230;-81
2022/04/11 11:59:27;;;;;;;2.53;1.30;;;14.40;61.90;;;;;;5005886;28;20229;-82
2022/04/11 12:04:35;;;;;;;4.17;1.20;;;14.30;61.00;;;;;;4988991;28;20288;-82
2022/04/11 12:07:02;;;;;;;3.37;1.50;;;14.20;61.10;;;;;;5005496;28;20234;-82
2022/04/11 12:09:34;;;;;;;2.87;1.43;;;14.10;60.70;;;;;;4986185;28;20240;-82
2022/04/11 12:12:01;;;;;;;4.53;1.57;;;14.00;61.10;;;;;;4986760;28;20223;-83
2022/04/11 12:14:29;;;;;;;3.70;1.30;;;14.10;60.90;;;;;;4988784;28;20235;-83
2022/04/11 12:16:58;;;;;;;2.77;1.30;;;14.20;60.80;;;;;;4986870;28;20235;-83
2022/04/11 12:19:34;;;;;;;4.00;1.53;;;14.40;61.30;;;;;;4987385;28;20235;-83
2022/04/11 12:22:12;;;;;;;1.93;1.30;;;14.80;60.80;;;;;;5007737;28;20310;-82
2022/04/11 12:24:39;;;;;;;5.00;1.50;;;15.20;60.50;;;;;;5001539;28;20326;-83
2022/04/11 12:27:10;;;;;;;3.07;1.40;;;15.60;59.90;;;;;;5007241;28;20227;-83
2022/04/11 12:29:42;;;;;;;4.60;1.70;;;16.00;59.70;;;;;;4985971;28;20334;-83
2022/04/11 12:32:13;;;;;;;3.33;1.83;;;16.40;59.40;;;;;;4986318;28;20229;-83
2022/04/11 12:34:42;;;;;;;2.80;1.67;;;16.70;58.80;;;;;;5004936;28;20228;-83
2022/04/11 12:37:11;;;;;;;2.83;1.40;;;16.80;57.40;;;;;;5007038;28;20231;-83
2022/04/11 12:39:51;;;;;;;2.97;1.30;;;16.80;56.90;;;;;;4983938;28;20297;-82
2022/04/11 12:42:19;;;;;;;3.60;1.60;;;16.70;57.20;;;;;;4985368;28;20863;-83
2022/04/11 12:44:47;;;;;;;4.80;2.00;;;16.60;56.90;;;;;;4988703;28;20228;-83
2022/04/11 12:47:14;;;;;;;5.10;1.60;;;16.60;56.80;;;;;;5001764;28;20234;-83
2022/04/11 12:49:46;;;;;;;3.03;1.40;;;16.70;57.20;;;;;;4977603;28;20771;-83
2022/04/11 12:52:14;;;;;;;2.90;1.40;;;16.70;56.50;;;;;;4985863;28;20329;-83
2022/04/11 12:54:42;;;;;;;3.80;1.47;;;16.80;56.50;;;;;;5003544;28;20226;-83
2022/04/11 12:57:12;;;;;;;4.67;1.60;;;16.80;56.80;;;;;;5002363;28;20240;-83
2022/04/11 12:59:41;;;;;;;5.00;1.60;;;16.90;56.30;;;;;;5000756;28;20399;-83
2022/04/11 13:02:11;;;;;;;6.60;1.73;;;16.90;56.40;;;;;;4999984;28;20224;-83